createdAt,value
2022-10-06T00:02:21.972Z,81.71
2022-10-06T00:04:50.218Z,82.03
2022-10-06T00:07:17.189Z,82.05
2022-10-06T00:09:44.032Z,81.33
2022-10-06T00:12:11.375Z,81.80
2022-10-06T00:14:38.492Z,82.36
2022-10-06T00:17:05.318Z,82.22
2022-10-06T00:19:32.095Z,83.04
2022-10-06T00:22:00.393Z,84.13
2022-10-06T00:24:27.719Z,84.82
2022-10-06T00:26:54.513Z,83.84
2022-10-06T00:29:21.828Z,83.97
2022-10-06T00:31:48.857Z,83.39
2022-10-06T00:34:15.628Z,81.29
2022-10-06T00:36:42.465Z,81.88
2022-10-06T00:39:10.571Z,84.77
2022-10-06T00:41:38.818Z,84.49
2022-10-06T00:44:05.663Z,83.37
2022-10-06T00:46:36.739Z,84.53
2022-10-06T00:49:08.884Z,85.11
2022-10-06T00:51:39.241Z,84.83
2022-10-06T00:54:07.423Z,84.89
2022-10-06T00:56:37.646Z,84.23
2022-10-06T00:59:05.845Z,85.28
2022-10-06T01:01:34.211Z,84.51
2022-10-06T01:04:07.447Z,83.44
2022-10-06T01:06:45.217Z,84.15
2022-10-06T01:09:14.962Z,82.14
2022-10-06T01:11:45.116Z,83.49
2022-10-06T01:14:12.189Z,82.64
2022-10-06T01:16:42.795Z,82.51
2022-10-06T01:19:20.614Z,82.60
2022-10-06T01:21:51.219Z,82.85
2022-10-06T01:24:19.833Z,82.55
2022-10-06T01:26:49.243Z,83.34
2022-10-06T01:29:16.768Z,82.86
2022-10-06T01:31:44.066Z,82.91
2022-10-06T01:34:11.018Z,81.73
2022-10-06T01:36:40.392Z,83.41
2022-10-06T01:39:07.485Z,82.90
2022-10-06T01:41:35.668Z,83.76
2022-10-06T01:44:03.291Z,84.30
2022-10-06T01:46:30.514Z,83.27
2022-10-06T01:48:57.604Z,84.20
2022-10-06T01:51:25.056Z,83.17
2022-10-06T01:53:52.305Z,85.07
2022-10-06T01:56:21.550Z,83.89
2022-10-06T01:58:49.854Z,83.38
2022-10-06T02:01:16.740Z,83.65
2022-10-06T02:03:43.566Z,83.35
2022-10-06T02:06:11.052Z,83.74
2022-10-06T02:08:38.459Z,83.62
2022-10-06T02:11:09.219Z,83.80
2022-10-06T02:13:41.532Z,82.85
2022-10-06T02:16:11.907Z,82.48
2022-10-06T02:18:40.862Z,83.29
2022-10-06T02:21:14.198Z,83.44
2022-10-06T02:23:41.168Z,83.36
2022-10-06T02:26:07.976Z,84.25
2022-10-06T02:28:35.555Z,82.44
2022-10-06T02:31:05.364Z,83.66
2022-10-06T02:33:35.054Z,84.67
2022-10-06T02:36:02.425Z,84.89
2022-10-06T02:38:30.667Z,84.84
2022-10-06T02:40:58.623Z,85.92
2022-10-06T02:43:29.638Z,86.21
2022-10-06T02:45:59.725Z,85.47
2022-10-06T02:48:28.078Z,85.68
2022-10-06T02:50:58.505Z,84.81
2022-10-06T02:53:26.280Z,84.97
2022-10-06T02:55:58.517Z,85.75
2022-10-06T02:58:26.095Z,84.99
2022-10-06T03:00:53.304Z,85.84
2022-10-06T03:03:20.164Z,86.05
2022-10-06T03:05:46.964Z,86.13
2022-10-06T03:08:15.161Z,85.78
2022-10-06T03:10:41.994Z,86.99
2022-10-06T03:13:08.968Z,85.86
2022-10-06T03:15:35.806Z,87.17
2022-10-06T03:18:02.688Z,86.87
2022-10-06T03:20:29.467Z,86.87
2022-10-06T03:22:56.300Z,87.15
2022-10-06T03:25:24.595Z,87.05
2022-10-06T03:27:52.153Z,86.89
2022-10-06T03:30:19.041Z,87.26
2022-10-06T03:32:45.817Z,86.74
2022-10-06T03:35:12.812Z,87.41
2022-10-06T03:37:40.108Z,87.25
2022-10-06T03:40:08.234Z,86.97
2022-10-06T03:42:37.284Z,88.19
2022-10-06T03:45:05.382Z,87.82
2022-10-06T03:47:32.232Z,88.24
2022-10-06T03:49:59.064Z,87.73
2022-10-06T03:52:26.255Z,88.39
2022-10-06T03:54:53.799Z,88.16
2022-10-06T03:57:21.705Z,88.51
2022-10-06T03:59:49.939Z,89.13
2022-10-06T04:02:16.787Z,88.39
2022-10-06T04:04:43.779Z,88.42
2022-10-06T04:07:11.704Z,88.01
2022-10-06T04:09:39.448Z,88.66
2022-10-06T04:12:06.696Z,89.05
2022-10-06T04:14:36.228Z,88.30
2022-10-06T04:17:06.091Z,88.92
2022-10-06T04:19:38.544Z,88.01
2022-10-06T04:22:06.140Z,88.48
2022-10-06T04:24:34.443Z,89.08
2022-10-06T04:27:20.287Z,89.91
2022-10-06T04:29:53.257Z,90.20
2022-10-06T04:32:21.732Z,89.21
2022-10-06T04:34:48.601Z,89.40
2022-10-06T04:37:15.604Z,89.98
2022-10-06T04:39:43.915Z,90.35
2022-10-06T04:42:10.763Z,89.43
2022-10-06T04:44:37.738Z,90.23
2022-10-06T04:47:06.247Z,90.11
2022-10-06T04:49:34.433Z,89.85
2022-10-06T04:52:01.684Z,89.46
2022-10-06T04:54:33.832Z,90.26
2022-10-06T04:57:02.967Z,90.72
2022-10-06T04:59:49.208Z,90.21
2022-10-06T05:02:17.501Z,90.41
2022-10-06T05:04:46.804Z,89.84
2022-10-06T05:07:15.756Z,89.76
2022-10-06T05:09:42.770Z,90.30
2022-10-06T05:12:11.577Z,90.05
2022-10-06T05:14:39.686Z,90.34
2022-10-06T05:17:06.519Z,90.00
2022-10-06T05:19:34.867Z,90.73
2022-10-06T05:22:03.666Z,90.75
2022-10-06T05:24:32.160Z,90.25
2022-10-06T05:27:02.228Z,90.73
2022-10-06T05:29:29.795Z,90.72
2022-10-06T05:31:57.642Z,90.34
2022-10-06T05:34:25.743Z,90.82
2022-10-06T05:36:52.737Z,91.05
2022-10-06T05:39:21.274Z,91.72
2022-10-06T05:41:55.993Z,90.64
2022-10-06T05:44:23.821Z,91.42
2022-10-06T05:46:50.670Z,90.92
2022-10-06T05:49:19.970Z,91.38
2022-10-06T05:51:53.182Z,91.41
2022-10-06T05:54:29.909Z,91.41
2022-10-06T05:56:56.818Z,91.27
2022-10-06T05:59:23.869Z,91.46
2022-10-06T06:01:53.189Z,91.89
2022-10-06T06:04:32.489Z,92.03
2022-10-06T06:07:00.328Z,91.90
2022-10-06T06:09:29.195Z,92.02
2022-10-06T06:12:00.319Z,93.07
2022-10-06T06:15:05.612Z,93.13
2022-10-06T06:17:38.357Z,93.74
2022-10-06T06:20:06.920Z,93.99
2022-10-06T06:22:34.263Z,93.60
2022-10-06T06:25:02.595Z,92.77
2022-10-06T06:27:29.783Z,93.09
2022-10-06T06:29:57.611Z,92.96
2022-10-06T06:32:27.475Z,92.48
2022-10-06T06:34:54.619Z,92.76
2022-10-06T06:37:21.865Z,93.02
2022-10-06T06:39:49.276Z,92.71
2022-10-06T06:42:18.022Z,92.84
2022-10-06T06:44:48.729Z,93.26
2022-10-06T06:47:26.772Z,92.38
2022-10-06T06:49:54.237Z,92.10
2022-10-06T06:52:22.213Z,92.33
2022-10-06T06:54:49.612Z,92.28
2022-10-06T06:57:19.369Z,91.86
2022-10-06T06:59:49.084Z,91.78
2022-10-06T07:02:17.207Z,91.91
2022-10-06T07:04:45.957Z,91.94
2022-10-06T07:07:16.146Z,91.92
2022-10-06T07:09:45.872Z,91.65
2022-10-06T07:12:13.842Z,91.90
2022-10-06T07:15:09.880Z,91.48
2022-10-06T07:18:00.980Z,90.29
2022-10-06T07:20:54.904Z,89.49
2022-10-06T07:23:45.482Z,89.24
2022-10-06T07:26:17.336Z,88.90
2022-10-06T07:28:45.089Z,88.84
2022-10-06T07:31:18.644Z,88.65
2022-10-06T07:33:46.806Z,88.70
2022-10-06T07:36:14.095Z,89.29
2022-10-06T07:38:41.614Z,88.53
2022-10-06T07:41:24.131Z,88.86
2022-10-06T07:43:55.368Z,89.06
2022-10-06T07:46:25.568Z,89.43
2022-10-06T07:49:25.032Z,89.16
2022-10-06T07:51:53.824Z,88.12
2022-10-06T07:54:24.017Z,87.51
2022-10-06T07:57:16.929Z,87.77
2022-10-06T07:59:44.350Z,86.77
2022-10-06T08:02:13.364Z,87.55
2022-10-06T08:04:40.313Z,87.26
2022-10-06T08:07:10.283Z,86.88
2022-10-06T08:09:37.536Z,86.47
2022-10-06T08:12:24.696Z,88.61
2022-10-06T08:14:51.773Z,86.35
2022-10-06T08:17:20.076Z,86.23
2022-10-06T08:19:48.079Z,83.90
2022-10-06T08:22:16.059Z,84.28
2022-10-06T08:25:08.374Z,82.67
2022-10-06T08:27:35.208Z,84.16
2022-10-06T08:30:02.605Z,83.59
2022-10-06T08:32:32.251Z,82.49
2022-10-06T08:34:59.275Z,82.07
2022-10-06T08:37:27.438Z,82.30
2022-10-06T08:39:55.818Z,81.32
2022-10-06T08:42:30.280Z,81.23
2022-10-06T08:45:00.443Z,80.61
2022-10-06T08:47:34.008Z,79.78
2022-10-06T08:50:01.757Z,79.67
2022-10-06T08:52:47.551Z,79.96
2022-10-06T08:55:28.241Z,80.43
2022-10-06T08:58:06.691Z,80.08
2022-10-06T09:00:33.909Z,78.47
2022-10-06T09:03:02.672Z,74.34
2022-10-06T09:05:31.421Z,75.27
2022-10-06T09:08:34.647Z,75.91
2022-10-06T09:11:15.081Z,74.75
2022-10-06T09:13:47.349Z,74.39
2022-10-06T09:16:17.108Z,71.96
2022-10-06T09:19:07.765Z,72.89
2022-10-06T09:21:40.560Z,73.66
2022-10-06T09:24:12.695Z,73.53
2022-10-06T09:26:45.661Z,71.71
2022-10-06T09:29:12.849Z,72.34
2022-10-06T09:31:42.355Z,74.34
2022-10-06T09:34:21.623Z,73.00
2022-10-06T09:37:01.728Z,69.60
2022-10-06T09:39:33.391Z,67.53
2022-10-06T09:42:11.389Z,65.98
2022-10-06T09:44:48.219Z,60.93
2022-10-06T09:47:39.321Z,53.94
2022-10-06T09:50:21.932Z,51.86
2022-10-06T09:53:11.440Z,50.60
2022-10-06T09:55:45.753Z,47.62
2022-10-06T09:58:20.667Z,44.06
2022-10-06T10:00:51.803Z,39.40
2022-10-06T10:03:18.879Z,42.55
2022-10-06T10:05:51.994Z,40.81
2022-10-06T10:08:22.501Z,40.41
2022-10-06T10:10:50.517Z,41.33
2022-10-06T10:13:20.424Z,40.92
2022-10-06T10:15:54.440Z,40.87
2022-10-06T10:18:26.767Z,40.95
2022-10-06T10:20:57.841Z,34.46
2022-10-06T10:23:31.647Z,40.11
2022-10-06T10:26:13.945Z,41.76
2022-10-06T10:29:06.959Z,43.39
2022-10-06T10:31:48.372Z,38.51
2022-10-06T10:34:28.077Z,36.24
2022-10-06T10:37:04.327Z,35.39
2022-10-06T10:39:37.561Z,34.26
2022-10-06T10:42:11.468Z,35.22
2022-10-06T10:44:44.160Z,35.30
2022-10-06T10:47:17.761Z,35.91
2022-10-06T10:49:51.229Z,38.14
2022-10-06T10:52:23.102Z,39.07
2022-10-06T10:54:57.124Z,35.93
2022-10-06T10:57:40.049Z,35.55
2022-10-06T11:00:19.745Z,35.41
2022-10-06T11:02:46.916Z,38.00
2022-10-06T11:05:17.492Z,39.55
2022-10-06T11:07:53.479Z,38.76
2022-10-06T11:10:25.942Z,37.52
2022-10-06T11:13:14.356Z,39.71
2022-10-06T11:15:55.330Z,38.62
2022-10-06T11:18:30.156Z,43.25
2022-10-06T11:21:01.269Z,48.26
2022-10-06T11:23:47.125Z,48.21
2022-10-06T11:26:29.241Z,49.15
2022-10-06T11:29:04.815Z,51.04
2022-10-06T11:31:35.997Z,53.07
2022-10-06T11:34:04.749Z,56.66
2022-10-06T11:36:39.667Z,55.71
2022-10-06T11:39:16.590Z,55.26
2022-10-06T11:41:49.443Z,56.40
2022-10-06T11:44:24.207Z,56.33
2022-10-06T11:46:55.953Z,57.42
2022-10-06T11:49:49.465Z,57.37
2022-10-06T11:52:44.263Z,59.14
2022-10-06T11:55:18.158Z,59.38
2022-10-06T12:01:02.469Z,61.07
2022-10-06T12:04:13.152Z,58.88
2022-10-06T12:07:01.767Z,58.91
2022-10-06T12:09:53.325Z,59.93
2022-10-06T12:13:01.860Z,58.94
2022-10-06T12:19:20.918Z,60.70
2022-10-06T12:21:54.660Z,58.17
2022-10-06T12:24:30.787Z,55.98
2022-10-06T12:27:20.714Z,58.67
2022-10-06T12:29:58.235Z,59.07
2022-10-06T12:32:38.704Z,60.73
2022-10-06T12:35:31.474Z,57.60
2022-10-06T12:38:02.743Z,57.89
2022-10-06T12:40:47.757Z,59.17
2022-10-06T12:43:53.865Z,61.12
2022-10-06T12:46:40.608Z,59.69
2022-10-06T12:49:43.270Z,59.57
2022-10-06T12:52:39.526Z,57.48
2022-10-06T12:55:27.781Z,60.64
2022-10-06T12:57:54.644Z,60.79
2022-10-06T13:00:31.527Z,60.95
2022-10-06T13:03:02.688Z,61.75
2022-10-06T13:05:30.555Z,61.81
2022-10-06T13:08:02.935Z,62.07
2022-10-06T13:10:31.188Z,63.70
2022-10-06T13:12:59.082Z,63.06
2022-10-06T13:15:33.392Z,63.89
2022-10-06T13:18:11.290Z,64.30
2022-10-06T13:20:41.771Z,61.57
2022-10-06T13:23:24.615Z,61.25
2022-10-06T13:25:56.897Z,60.59
2022-10-06T13:28:46.072Z,61.61
2022-10-06T13:31:22.057Z,63.02
2022-10-06T13:33:54.392Z,61.49
2022-10-06T13:36:23.605Z,60.27
2022-10-06T13:38:50.675Z,60.70
2022-10-06T13:41:22.802Z,61.19
2022-10-06T13:43:52.723Z,62.73
2022-10-06T13:46:22.127Z,63.34
2022-10-06T13:48:53.825Z,61.91
2022-10-06T13:51:23.550Z,61.22
2022-10-06T13:53:51.632Z,60.37
2022-10-06T13:56:35.509Z,60.44
2022-10-06T13:59:23.624Z,62.27
2022-10-06T14:01:50.750Z,61.75
2022-10-06T14:04:19.477Z,62.66
2022-10-06T14:06:50.605Z,62.75
2022-10-06T14:09:23.147Z,64.04
2022-10-06T14:11:50.540Z,63.10
2022-10-06T14:14:18.530Z,61.95
2022-10-06T14:16:48.899Z,64.75
2022-10-06T14:19:36.081Z,63.54
2022-10-06T14:22:04.656Z,65.39
2022-10-06T14:24:34.352Z,65.57
2022-10-06T14:27:03.072Z,65.75
2022-10-06T14:29:31.601Z,66.17
2022-10-06T14:32:08.135Z,65.29
2022-10-06T14:34:36.431Z,63.89
2022-10-06T14:37:03.439Z,62.99
2022-10-06T14:39:30.328Z,64.70
2022-10-06T14:41:57.320Z,62.95
2022-10-06T14:44:24.137Z,64.40
2022-10-06T14:46:51.145Z,64.21
2022-10-06T14:49:18.286Z,64.92
2022-10-06T14:51:46.538Z,65.80
2022-10-06T14:54:13.792Z,64.60
2022-10-06T14:56:41.910Z,66.91
2022-10-06T14:59:12.205Z,66.92
2022-10-06T15:01:40.468Z,67.30
2022-10-06T15:04:09.423Z,67.72
2022-10-06T15:06:54.710Z,69.53
2022-10-06T15:09:23.988Z,70.09
2022-10-06T15:11:51.816Z,68.39
2022-10-06T15:14:18.774Z,66.74
2022-10-06T15:16:45.829Z,66.68
2022-10-06T15:19:12.980Z,67.80
2022-10-06T15:21:40.687Z,68.12
2022-10-06T15:24:10.881Z,68.96
2022-10-06T15:26:57.778Z,68.85
2022-10-06T15:29:26.025Z,69.25
2022-10-06T15:31:54.810Z,68.25
2022-10-06T15:34:25.230Z,67.11
2022-10-06T15:36:54.045Z,67.96
2022-10-06T15:39:23.721Z,68.56
2022-10-06T15:41:52.531Z,70.01
2022-10-06T15:44:20.675Z,68.82
2022-10-06T15:46:51.798Z,69.03
2022-10-06T15:49:20.091Z,68.78
2022-10-06T15:51:49.142Z,69.84
2022-10-06T15:54:21.873Z,70.00
2022-10-06T15:56:50.004Z,70.20
2022-10-06T15:59:23.803Z,69.53
2022-10-06T16:01:52.054Z,70.56
2022-10-06T16:04:29.303Z,69.86
2022-10-06T16:06:56.781Z,70.56
2022-10-06T16:09:26.707Z,71.22
2022-10-06T16:11:54.909Z,71.30
2022-10-06T16:14:24.358Z,72.12
2022-10-06T16:16:52.231Z,71.50
2022-10-06T16:19:20.354Z,71.85
2022-10-06T16:21:53.425Z,71.09
2022-10-06T16:24:23.686Z,71.06
2022-10-06T16:26:51.934Z,71.77
2022-10-06T16:29:21.032Z,71.53
2022-10-06T16:31:51.957Z,72.61
2022-10-06T16:34:19.441Z,72.17
2022-10-06T16:36:46.678Z,72.72
2022-10-06T16:39:15.992Z,73.95
2022-10-06T16:41:43.263Z,74.01
2022-10-06T16:44:10.291Z,74.19
2022-10-06T16:46:37.649Z,75.03
2022-10-06T16:49:10.064Z,74.75
2022-10-06T16:51:38.901Z,75.38
2022-10-06T16:54:07.383Z,76.34
2022-10-06T16:56:36.248Z,76.73
2022-10-06T16:59:07.443Z,77.02
2022-10-06T17:01:35.971Z,77.46
2022-10-06T17:04:05.405Z,77.20
2022-10-06T17:06:35.381Z,78.30
2022-10-06T17:09:02.449Z,77.77
2022-10-06T17:11:29.254Z,78.31
2022-10-06T17:13:58.030Z,78.40
2022-10-06T17:16:26.885Z,78.56
2022-10-06T17:18:55.683Z,78.56
2022-10-06T17:21:44.831Z,79.00
2022-10-06T17:24:12.690Z,79.25
2022-10-06T17:26:41.534Z,79.61
2022-10-06T17:29:12.088Z,80.30
2022-10-06T17:31:40.970Z,80.43
2022-10-06T17:34:12.207Z,80.68
2022-10-06T17:36:41.786Z,80.34
2022-10-06T17:39:08.983Z,81.16
2022-10-06T17:41:37.802Z,80.75
2022-10-06T17:44:06.184Z,80.47
2022-10-06T17:46:37.576Z,80.71
2022-10-06T17:49:10.288Z,80.58
2022-10-06T17:51:40.366Z,81.47
2022-10-06T17:54:12.212Z,81.51
2022-10-06T17:56:40.572Z,82.13
2022-10-06T17:59:11.430Z,82.38
2022-10-06T18:01:38.283Z,82.78
2022-10-06T18:04:06.705Z,83.62
2022-10-06T18:06:35.288Z,83.64
2022-10-06T18:09:03.319Z,83.14
2022-10-06T18:11:38.836Z,83.76
2022-10-06T18:14:08.532Z,83.96
2022-10-06T18:16:38.024Z,83.34
2022-10-06T18:19:07.247Z,84.02
2022-10-06T18:21:41.474Z,83.36
2022-10-06T18:24:11.941Z,83.68
2022-10-06T18:26:41.952Z,83.26
2022-10-06T18:29:11.122Z,83.59
2022-10-06T18:31:39.259Z,82.89
2022-10-06T18:36:53.105Z,82.78
2022-10-06T18:39:19.862Z,83.18
2022-10-06T18:41:47.984Z,82.40
2022-10-06T18:44:36.492Z,82.78
2022-10-06T18:47:21.967Z,82.70
2022-10-06T18:49:48.849Z,83.09
2022-10-06T18:52:16.187Z,83.66
2022-10-06T18:54:44.588Z,82.81
2022-10-06T18:57:11.359Z,82.80
2022-10-06T18:59:40.394Z,83.20
2022-10-06T19:02:07.213Z,83.61
2022-10-06T19:04:35.851Z,84.01
2022-10-06T19:07:02.727Z,83.60
2022-10-06T19:09:29.498Z,84.72
2022-10-06T19:11:58.212Z,83.80
2022-10-06T19:14:26.337Z,83.68
2022-10-06T19:16:56.791Z,83.53
2022-10-06T19:19:24.456Z,83.19
2022-10-06T19:21:52.677Z,83.00
2022-10-06T19:24:21.792Z,83.72
2022-10-06T19:26:50.979Z,82.97
2022-10-06T19:29:23.629Z,83.55
2022-10-06T19:31:52.331Z,83.54
2022-10-06T19:34:21.308Z,83.14
2022-10-06T19:36:50.041Z,83.47
2022-10-06T19:39:17.280Z,83.12
2022-10-06T19:42:02.515Z,82.61
2022-10-06T19:44:29.419Z,83.00
2022-10-06T19:46:56.244Z,82.26
2022-10-06T19:49:24.470Z,82.25
2022-10-06T19:51:51.407Z,82.33
2022-10-06T19:54:19.194Z,82.51
2022-10-06T19:56:47.043Z,83.10
2022-10-06T19:59:15.921Z,83.04
2022-10-06T20:01:43.401Z,82.96
2022-10-06T20:04:10.843Z,83.10
2022-10-06T20:06:41.376Z,83.10
2022-10-06T20:09:09.374Z,83.87
2022-10-06T20:11:37.846Z,83.76
2022-10-06T20:14:06.225Z,84.69
2022-10-06T20:16:33.557Z,83.55
2022-10-06T20:19:00.632Z,84.07
2022-10-06T20:21:32.902Z,84.03
2022-10-06T20:24:03.894Z,84.88
2022-10-06T20:26:32.405Z,84.23
2022-10-06T20:29:00.380Z,84.05
2022-10-06T20:31:29.498Z,84.51
2022-10-06T20:33:59.217Z,84.77
2022-10-06T20:36:27.316Z,84.66
2022-10-06T20:39:13.360Z,84.75
2022-10-06T20:41:42.295Z,84.70
2022-10-06T20:44:09.297Z,84.95
2022-10-06T20:46:38.755Z,85.37
2022-10-06T20:49:07.893Z,86.15
2022-10-06T20:51:36.271Z,86.05
2022-10-06T20:54:04.459Z,86.68
2022-10-06T20:56:33.202Z,87.23
2022-10-06T20:59:01.599Z,87.34
2022-10-06T21:01:28.641Z,87.27
2022-10-06T21:03:55.990Z,86.98
2022-10-06T21:06:24.182Z,87.33
2022-10-06T21:08:51.697Z,87.01
2022-10-06T21:11:20.452Z,87.30
2022-10-06T21:13:52.705Z,87.80
2022-10-06T21:16:22.334Z,87.92
2022-10-06T21:18:49.148Z,88.24
2022-10-06T21:21:16.148Z,88.39
2022-10-06T21:23:45.329Z,89.04
2022-10-06T21:26:13.796Z,88.89
2022-10-06T21:28:41.072Z,89.08
2022-10-06T21:31:13.226Z,88.84
2022-10-06T21:33:42.714Z,89.17
2022-10-06T21:36:15.773Z,89.55
2022-10-06T21:38:44.986Z,89.22
2022-10-06T21:41:31.769Z,89.19
2022-10-06T21:44:00.912Z,89.65
2022-10-06T21:46:29.288Z,89.68
2022-10-06T21:48:59.037Z,89.15
2022-10-06T21:51:27.712Z,89.73
2022-10-06T21:53:58.286Z,89.40
2022-10-06T21:56:26.253Z,90.13
2022-10-06T21:58:55.831Z,90.20
2022-10-06T22:01:23.661Z,89.92
2022-10-06T22:03:50.942Z,89.73
2022-10-06T22:06:20.026Z,89.77
2022-10-06T22:08:47.528Z,90.41
2022-10-06T22:11:16.469Z,90.30
2022-10-06T22:13:45.169Z,90.64
2022-10-06T22:16:14.765Z,90.49
2022-10-06T22:18:42.724Z,90.46
2022-10-06T22:21:15.081Z,90.41
2022-10-06T22:23:44.915Z,90.43
2022-10-06T22:26:13.154Z,90.50
2022-10-06T22:28:44.488Z,90.51
2022-10-06T22:31:12.522Z,90.71
2022-10-06T22:33:40.589Z,90.76
2022-10-06T22:36:08.813Z,90.54
2022-10-06T22:38:36.101Z,90.91
2022-10-06T22:41:06.120Z,90.87
2022-10-06T22:43:33.553Z,90.98
2022-10-06T22:46:00.983Z,90.90
2022-10-06T22:48:28.055Z,90.69
2022-10-06T22:50:55.074Z,90.94
2022-10-06T22:53:23.516Z,90.85
2022-10-06T22:55:51.317Z,91.02
2022-10-06T22:58:19.831Z,90.51
2022-10-06T23:00:46.774Z,90.56
2022-10-06T23:03:13.982Z,90.61
2022-10-06T23:05:41.085Z,90.96
2022-10-06T23:08:08.417Z,91.24
2022-10-06T23:10:36.684Z,91.26
2022-10-06T23:13:03.822Z,91.42
2022-10-06T23:15:32.033Z,91.40
2022-10-06T23:17:58.962Z,91.20
2022-10-06T23:20:26.020Z,91.84
2022-10-06T23:22:54.601Z,91.59
2022-10-06T23:25:27.053Z,91.05
2022-10-06T23:27:54.364Z,91.78
2022-10-06T23:30:21.397Z,91.33
2022-10-06T23:32:49.573Z,91.77
2022-10-06T23:35:16.400Z,91.34
2022-10-06T23:37:43.479Z,91.95
2022-10-06T23:40:10.985Z,91.75
2022-10-06T23:42:37.861Z,92.02
2022-10-06T23:45:07.755Z,91.91
2022-10-06T23:47:34.665Z,92.15
2022-10-06T23:50:02.990Z,92.49
2022-10-06T23:52:29.861Z,92.11
2022-10-06T23:54:56.749Z,92.42
2022-10-06T23:57:23.760Z,92.55
2022-10-06T23:59:50.996Z,93.17
